Flight Track Log - Related Links

Times and Time Zones

All times are in EST time to prevent confusion due to time zone crossing. See the N9305N flight status page for this flight to view local times or setup timezone preferences in your user account.

Time Position Orientation Groundspeed Altitude Reporting Facility
EST Latitude Longitude Course Direction KTS MPH feet Rate Location/Type
Thu 12:38:39 PM 27.9333 -82.7000 319° Northwest 78 90 900  Level Tampa TRACON
Thu 12:39:39 PM 27.9500 -82.7167 319° Northwest 72 83 1,600 350 Climbing Tampa TRACON
Thu 12:40:39 PM 27.9500 -82.7333 270° West 107 123 1,600 263 Level Tampa TRACON
Thu 12:41:33 PM 27.9333 -82.7500 221° Southwest 104 120 2,100 619 Climbing Tampa TRACON
Thu 12:42:45 PM 27.9167 -82.7167 119° Southeast 87 100 2,900 409 Climbing Tampa TRACON
Thu 12:43:45 PM 27.9333 -82.6833 60° Northeast 125 144 3,000 53 Climbing Tampa TRACON
Thu 12:44:39 PM 27.9333 -82.6500 90° East 119 137 3,000  Level Tampa TRACON
Thu 12:45:40 PM 27.9500 -82.6167 60° Northeast 112 129 3,000  Level Tampa TRACON
Thu 12:46:39 PM 27.9667 -82.5833 60° Northeast 115 132 3,000 -50 Level Tampa TRACON
Thu 12:47:39 PM 27.9833 -82.5500 60° Northeast 140 161 2,900  Descending Tampa TRACON
Thu 12:48:34 PM 27.9833 -82.5167 90° East 120 138 3,000 100 Climbing Tampa TRACON
Thu 12:49:39 PM 27.9667 -82.4667 111° Southeast 122 140 3,100 190 Climbing Tampa TRACON
Thu 12:50:40 PM 27.9667 -82.4333 90° East 112 129 3,400 397 Climbing Tampa TRACON
Thu 12:51:40 PM 27.9833 -82.4000 60° Northeast 97 112 3,900 368 Climbing Tampa TRACON
Thu 12:52:34 PM 28.0000 -82.3833 41° Northeast 112 129 4,100 53 Climbing Tampa TRACON
Thu 12:53:34 PM 28.0333 -82.3667 24° Northeast 107 123 4,000 -50 Descending Tampa TRACON
Thu 12:54:34 PM 28.0667 -82.3500 24° Northeast 103 119 4,000 -50 Level Tampa TRACON
Thu 12:55:34 PM 28.0833 -82.3500 360° North 102 117 3,900  Descending Tampa TRACON
Thu 12:56:34 PM 28.1000 -82.3167 60° Northeast 110 127 4,000 50 Climbing Tampa TRACON
Thu 12:57:34 PM 28.1167 -82.2833 60° Northeast 118 136 4,000 298 Level Tampa TRACON
Thu 12:58:35 PM 28.1333 -82.2500 60° Northeast 100 115 4,600 496 Climbing Tampa TRACON
Thu 12:59:35 PM 28.1333 -82.2167 90° East 105 121 5,000 190 Climbing Tampa TRACON
Thu 01:00:41 PM 28.1500 -82.1833 60° Northeast 123 142 5,000  Level Tampa TRACON
Thu 01:01:41 PM 28.1667 -82.1500 60° Northeast 124 143 5,000  Level Tampa TRACON
Thu 01:03:55 PM 28.2000 -82.0667 66° East 119 137 5,000  Level Orlando TRACON
Thu 01:04:56 PM 28.2167 -82.0333 60° Northeast 119 137 5,000  Level Orlando TRACON
Thu 01:05:56 PM 28.2167 -82.0000 90° East 118 136 5,000  Level Orlando TRACON
Thu 01:06:56 PM 28.2333 -81.9667 60° Northeast 119 137 5,000  Level Orlando TRACON
Thu 01:07:56 PM 28.2500 -81.9333 60° Northeast 122 140 5,000  Level Orlando TRACON
Thu 01:09:02 PM 28.2667 -81.8833 69° East 127 146 5,000 -143 Level Orlando TRACON
Thu 01:10:02 PM 28.2833 -81.8667 41° Northeast 110 127 4,700 -400 Descending Orlando TRACON
Thu 01:11:02 PM 28.3000 -81.8333 60° Northeast 97 112 4,200 -347 Descending Orlando TRACON
Thu 01:12:03 PM 28.3333 -81.8167 24° Northeast 106 122 4,000 -347 Descending Orlando TRACON
Thu 01:13:03 PM 28.3500 -81.8000 41° Northeast 112 129 3,500 -500 Descending Orlando TRACON
Thu 01:14:03 PM 28.3667 -81.7667 60° Northeast 110 127 3,000 -248 Descending Orlando TRACON
Thu 01:15:04 PM 28.4000 -81.7500 24° Northeast 115 132 3,000  Level Orlando TRACON
Thu 01:16:03 PM 28.4167 -81.7167 60° Northeast 112 129 3,000 50 Level Orlando TRACON
Thu 01:17:04 PM 28.4500 -81.7000 24° Northeast 118 136 3,100  Climbing Orlando TRACON
Thu 01:18:04 PM 28.4667 -81.6833 41° Northeast 115 132 3,000 -50 Descending Orlando TRACON
Thu 01:19:04 PM 28.5000 -81.6500 41° Northeast 116 133 3,000  Level Orlando TRACON
Thu 01:19:59 PM 28.5167 -81.6333 41° Northeast 109 125 3,000  Level Orlando TRACON
Thu 01:20:58 PM 28.5333 -81.6000 60° Northeast 115 132 3,000  Level Orlando TRACON
Thu 01:21:59 PM 28.5667 -81.5833 24° Northeast 122 140 3,000  Level Orlando TRACON
Thu 01:22:59 PM 28.5833 -81.5500 60° Northeast 113 130 3,000  Level Orlando TRACON
Thu 01:23:59 PM 28.6000 -81.5167 60° Northeast 124 143 3,000  Level Orlando TRACON
Thu 01:24:59 PM 28.6167 -81.4833 60° Northeast 120 138 3,000  Level Orlando TRACON
Thu 01:25:59 PM 28.6333 -81.4667 41° Northeast 117 135 3,000  Level Orlando TRACON
Thu 01:26:59 PM 28.6500 -81.4167 69° East 124 143 3,000 -248 Level Orlando TRACON
Thu 01:28:00 PM 28.6500 -81.3833 90° East 116 133 2,500 -545 Descending Orlando TRACON
Thu 01:29:00 PM 28.6500 -81.3500 90° East 120 138 1,900 -400 Descending Orlando TRACON
Thu 01:30:00 PM 28.6500 -81.3167 90° East 119 137 1,700 -150 Descending Orlando TRACON
Thu 01:31:00 PM 28.6667 -81.2667 69° East 118 136 1,600 -50 Descending Orlando TRACON
Thu 01:32:00 PM 28.6667 -81.2333 90° East 116 133 1,600 50 Level Orlando TRACON
Thu 01:33:00 PM 28.6667 -81.2000 90° East 111 128 1,700 50 Climbing Orlando TRACON
Thu 01:34:00 PM 28.6500 -81.1833 139° Southeast 101 116 1,700  Level Orlando TRACON
Thu 01:35:00 PM 28.6167 -81.1833 180° South 110 127 1,700 -50 Level Orlando TRACON
Thu 01:36:01 PM 28.6000 -81.2000 221° Southwest 89 102 1,600 -94 Descending Orlando TRACON
Thu 01:37:07 PM 28.5833 -81.2167 221° Southwest 97 112 1,500  Descending Orlando TRACON
Thu 01:38:07 PM 28.5833 -81.2500 270° West 78 90 1,600 -150 Climbing Orlando TRACON
Thu 01:39:07 PM 28.5667 -81.2667 221° Southwest 82 94 1,200 -400 Descending Orlando TRACON
Thu 01:40:07 PM 28.5667 -81.3000 270° West 76 87 800 -400 Descending Orlando TRACON

Login

Don't have an account? Register now (free) for customized features, flight alerts, and more!